Time;durP1;ratioP1;P1;durP2;ratioP2;P2;SDS_P1;SDS_P2;PMS_P1;PMS_P2;Temp;Humidity;BMP_temperature;BMP_pressure;BME280_temperature;BME280_humidity;BME280_pressure;Samples;Min_cycle;Max_cycle;Signal;HPM_P1;HPM_P2
2022/12/28 00:01:16;;;;;;;10.43;4.15;;;5.50;99.90;;;;;;5069488;28;20059;-74
2022/12/28 00:03:42;;;;;;;12.15;4.60;;;5.60;99.90;;;;;;5050369;28;20055;-73
2022/12/28 00:06:09;;;;;;;10.63;4.45;;;5.60;99.90;;;;;;5045118;28;20755;-74
2022/12/28 00:08:35;;;;;;;15.10;5.15;;;5.80;99.90;;;;;;5034879;28;20121;-74
2022/12/28 00:11:03;;;;;;;15.18;4.35;;;5.50;99.90;;;;;;5039927;28;20401;-73
2022/12/28 00:13:30;;;;;;;13.88;4.65;;;5.50;99.90;;;;;;5049187;28;20055;-74
2022/12/28 00:15:56;;;;;;;14.27;4.85;;;5.90;99.90;;;;;;5060560;28;20052;-74
2022/12/28 00:18:22;;;;;;;17.60;5.10;;;6.00;99.90;;;;;;5041200;28;20722;-73
2022/12/28 00:20:58;;;;;;;15.00;4.97;;;6.10;99.90;;;;;;5058285;28;20044;-73
2022/12/28 00:23:24;;;;;;;13.75;5.05;;;5.50;99.90;;;;;;5058012;28;20042;-74
2022/12/28 00:25:50;;;;;;;15.02;4.75;;;5.50;99.90;;;;;;5076577;28;20050;-72
2022/12/28 00:28:16;;;;;;;13.90;4.90;;;5.50;99.90;;;;;;5075250;28;20032;-74
2022/12/28 00:30:42;;;;;;;16.02;5.88;;;6.10;99.90;;;;;;5070224;28;20036;-76
2022/12/28 00:33:07;;;;;;;12.23;5.22;;;5.50;99.90;;;;;;5059489;28;20055;-75
2022/12/28 00:35:33;;;;;;;15.15;5.20;;;5.50;99.90;;;;;;5059644;28;20629;-74
2022/12/28 00:37:59;;;;;;;14.95;5.47;;;5.50;99.90;;;;;;5073221;28;20047;-75
2022/12/28 00:40:24;;;;;;;14.32;5.63;;;5.80;99.90;;;;;;5054413;28;20521;-74
2022/12/28 00:42:50;;;;;;;13.73;5.35;;;5.50;99.90;;;;;;5066039;28;20048;-74
2022/12/28 00:45:16;;;;;;;15.90;5.30;;;5.60;99.90;;;;;;5053071;28;20041;-74
2022/12/28 00:47:42;;;;;;;14.75;5.85;;;5.60;99.90;;;;;;5062169;28;20082;-74
2022/12/28 00:50:08;;;;;;;15.75;6.55;;;5.60;99.90;;;;;;5040655;28;20581;-72
2022/12/28 00:52:34;;;;;;;15.73;5.63;;;5.60;99.90;;;;;;5034251;28;20121;-74
2022/12/28 00:55:00;;;;;;;17.63;5.43;;;5.60;99.90;;;;;;5052358;28;20695;-72
2022/12/28 00:57:25;;;;;;;15.82;6.30;;;5.60;99.90;;;;;;5065830;28;20386;-70
2022/12/28 00:59:51;;;;;;;16.23;6.03;;;5.60;99.90;;;;;;5062753;28;20036;-71
2022/12/28 01:02:17;;;;;;;14.15;6.13;;;5.60;99.90;;;;;;5055542;28;20040;-72
2022/12/28 01:04:42;;;;;;;13.93;5.22;;;6.20;99.90;;;;;;5051995;28;20041;-74
2022/12/28 01:07:08;;;;;;;15.18;5.50;;;5.60;99.90;;;;;;5059763;28;20456;-72
2022/12/28 01:09:34;;;;;;;12.93;5.70;;;5.60;99.90;;;;;;5057322;28;20040;-73
2022/12/28 01:12:00;;;;;;;13.43;5.97;;;5.70;99.90;;;;;;5032806;28;20044;-73
2022/12/28 01:14:25;;;;;;;11.50;5.82;;;6.00;99.90;;;;;;5054956;28;20094;-73
2022/12/28 01:16:51;;;;;;;13.80;5.20;;;5.70;99.90;;;;;;5039641;28;20039;-74
2022/12/28 01:19:21;;;;;;;15.90;5.60;;;5.60;99.90;;;;;;5040586;28;20534;-75
2022/12/28 01:21:51;;;;;;;15.07;5.18;;;5.70;99.90;;;;;;5028949;28;20461;-73
2022/12/28 01:24:17;;;;;;;16.13;6.35;;;5.70;99.90;;;;;;5025087;28;20033;-73
2022/12/28 01:26:43;;;;;;;12.88;5.15;;;5.70;99.90;;;;;;5052851;28;20052;-74
2022/12/28 01:29:08;;;;;;;14.15;5.55;;;5.70;99.90;;;;;;5038428;28;20052;-74
2022/12/28 01:31:34;;;;;;;12.00;5.53;;;5.80;99.90;;;;;;5046271;28;20044;-74
2022/12/28 01:34:01;;;;;;;14.05;5.75;;;5.80;99.90;;;;;;5045408;28;20043;-73
2022/12/28 01:36:33;;;;;;;11.05;5.13;;;6.10;99.90;;;;;;5041392;28;20044;-71
2022/12/28 01:39:02;;;;;;;15.77;5.15;;;5.80;99.90;;;;;;5033293;28;20045;-75
2022/12/28 01:41:29;;;;;;;12.98;5.75;;;5.80;99.90;;;;;;5044556;28;20040;-73
2022/12/28 01:43:55;;;;;;;11.10;5.57;;;5.80;99.90;;;;;;5039848;28;20070;-74
2022/12/28 01:46:42;;;;;;;13.30;5.20;;;5.80;99.90;;;;;;5031832;28;20421;-75
2022/12/28 01:49:21;;;;;;;21.33;6.47;;;5.80;99.90;;;;;;5052289;28;20258;-75
2022/12/28 01:52:00;;;;;;;17.50;6.15;;;5.80;99.90;;;;;;5034772;28;20093;-76
2022/12/28 01:54:30;;;;;;;13.93;6.20;;;5.90;99.90;;;;;;5032323;28;20128;-74
2022/12/28 01:56:57;;;;;;;11.30;5.57;;;5.90;99.90;;;;;;5040973;28;20496;-74
2022/12/28 01:59:27;;;;;;;15.68;5.88;;;5.90;99.90;;;;;;5023234;28;20374;-74
2022/12/28 02:01:53;;;;;;;10.90;5.30;;;5.90;99.90;;;;;;5036873;28;20542;-73
2022/12/28 02:04:19;;;;;;;11.77;5.70;;;5.90;99.90;;;;;;5044683;28;20056;-75
2022/12/28 02:06:46;;;;;;;16.00;6.47;;;5.90;99.90;;;;;;5032527;28;20434;-73
2022/12/28 02:09:35;;;;;;;13.57;5.53;;;6.20;99.90;;;;;;5036939;28;20032;-72
2022/12/28 02:12:01;;;;;;;13.07;6.68;;;5.90;99.90;;;;;;5046621;28;20058;-73
2022/12/28 02:14:28;;;;;;;12.02;6.53;;;5.90;99.90;;;;;;5038776;28;20055;-75
2022/12/28 02:16:54;;;;;;;13.45;6.40;;;5.90;99.90;;;;;;5041660;28;20396;-72
2022/12/28 02:19:39;;;;;;;18.27;6.60;;;5.90;99.90;;;;;;5076312;28;20531;-74
2022/12/28 02:22:58;;;;;;;13.50;6.20;;;5.90;99.90;;;;;;5072849;28;20048;-73
2022/12/28 02:25:33;;;;;;;13.05;6.50;;;5.90;99.90;;;;;;5079771;28;20181;-73
2022/12/28 02:28:38;;;;;;;16.50;6.47;;;5.90;99.90;;;;;;5055460;28;20685;-72
2022/12/28 02:31:32;;;;;;;12.50;6.28;;;5.90;99.90;;;;;;5015024;28;20068;-76
2022/12/28 02:34:17;;;;;;;13.38;6.32;;;5.90;99.90;;;;;;5054650;28;20123;-73
2022/12/28 02:36:51;;;;;;;11.98;6.45;;;5.90;99.90;;;;;;5066535;28;20036;-76
2022/12/28 02:39:37;;;;;;;16.10;6.53;;;5.90;99.90;;;;;;5063024;28;20520;-73
2022/12/28 02:42:05;;;;;;;13.50;6.75;;;5.90;99.90;;;;;;5068848;28;20101;-72
2022/12/28 02:50:06;;;;;;;15.93;7.03;;;5.90;99.90;;;;;;5053237;28;20527;-75
2022/12/28 02:53:10;;;;;;;12.57;6.05;;;5.90;99.90;;;;;;5058264;28;20063;-75
2022/12/28 02:58:57;;;;;;;12.65;7.47;;;5.90;99.90;;;;;;5055136;28;20049;-75
2022/12/28 03:01:32;;;;;;;11.68;6.82;;;6.00;99.90;;;;;;5051210;28;20609;-77
2022/12/28 03:04:38;;;;;;;13.80;6.60;;;6.00;99.90;;;;;;5050175;28;20040;-78
2022/12/28 03:10:25;;;;;;;12.27;6.72;;;6.00;99.90;;;;;;5071213;28;20060;-75
2022/12/28 03:13:41;;;;;;;13.93;6.88;;;6.60;99.90;;;;;;5035440;28;1308307;-76
2022/12/28 03:16:03;;;;;;;14.93;7.20;;;6.10;99.90;;;;;;5072891;28;20501;-76
2022/12/28 03:32:28;;;;;;;;;;;6.20;99.90;;;;;;5065021;28;20055;-77
2022/12/28 03:34:53;;;;;;;14.88;7.40;;;6.20;99.90;;;;;;5051000;28;19924;-76
2022/12/28 03:37:48;;;;;;;13.32;7.82;;;6.20;99.90;;;;;;5034284;28;20051;-77
2022/12/28 03:40:38;;;;;;;16.20;8.23;;;6.70;99.90;;;;;;5072991;28;20408;-75
2022/12/28 03:46:14;;;;;;;13.10;8.15;;;6.30;99.90;;;;;;5045510;28;20618;-75
2022/12/28 03:48:41;;;;;;;15.68;7.88;;;6.60;99.90;;;;;;5051370;28;20086;-76
2022/12/28 03:51:07;;;;;;;12.38;7.22;;;6.30;99.90;;;;;;5032389;28;20043;-76
2022/12/28 03:53:44;;;;;;;11.63;7.10;;;6.30;99.90;;;;;;5050278;28;20036;-75
2022/12/28 03:56:11;;;;;;;12.23;7.47;;;6.30;99.90;;;;;;5068170;28;20059;-73
2022/12/28 03:58:37;;;;;;;13.23;7.60;;;6.30;99.90;;;;;;5053126;28;20044;-75
2022/12/28 04:01:04;;;;;;;11.82;7.28;;;6.40;99.90;;;;;;5065418;28;20044;-75
2022/12/28 04:03:29;;;;;;;13.82;7.88;;;6.30;99.90;;;;;;5054186;28;20093;-76
2022/12/28 04:05:55;;;;;;;11.55;7.22;;;6.40;99.90;;;;;;5049691;28;20047;-77
2022/12/28 04:08:21;;;;;;;11.85;7.45;;;6.40;99.90;;;;;;5055774;28;20032;-75
2022/12/28 04:10:47;;;;;;;13.95;7.95;;;6.40;99.90;;;;;;5052023;28;20585;-75
2022/12/28 04:13:12;;;;;;;13.20;7.55;;;6.40;99.90;;;;;;5049339;28;20079;-72
2022/12/28 04:15:38;;;;;;;12.98;7.90;;;6.40;99.90;;;;;;5039150;28;20052;-75
2022/12/28 04:18:04;;;;;;;10.93;6.97;;;6.50;99.90;;;;;;5059523;28;20691;-74
2022/12/28 04:20:29;;;;;;;11.13;7.60;;;6.50;99.90;;;;;;5063525;28;20047;-75
2022/12/28 04:22:55;;;;;;;10.30;7.05;;;6.50;99.90;;;;;;5063508;28;20040;-77
2022/12/28 04:25:21;;;;;;;9.65;6.57;;;6.50;99.90;;;;;;5062477;28;20036;-75
2022/12/28 04:27:47;;;;;;;10.20;7.15;;;6.80;99.90;;;;;;5044800;28;20145;-77
2022/12/28 04:30:12;;;;;;;10.18;7.03;;;6.50;99.90;;;;;;5051241;28;20051;-77
2022/12/28 04:32:38;;;;;;;11.98;7.40;;;6.50;99.90;;;;;;5046007;28;20087;-75
2022/12/28 04:35:04;;;;;;;11.98;7.15;;;6.50;99.90;;;;;;5060626;28;20047;-76
2022/12/28 04:37:30;;;;;;;11.50;7.20;;;6.50;99.90;;;;;;5046617;28;20076;-76
2022/12/28 04:39:55;;;;;;;10.15;6.60;;;6.60;99.90;;;;;;5070124;28;20472;-77
2022/12/28 04:42:21;;;;;;;12.82;7.45;;;6.60;99.90;;;;;;5040150;28;20754;-77
2022/12/28 04:44:47;;;;;;;14.40;8.30;;;6.60;99.90;;;;;;5065924;28;20063;-76
2022/12/28 04:47:13;;;;;;;10.52;7.43;;;6.60;99.90;;;;;;5051766;28;20044;-76
2022/12/28 04:49:39;;;;;;;12.73;8.13;;;6.70;99.90;;;;;;5074987;28;20122;-77
2022/12/28 04:52:04;;;;;;;14.00;7.97;;;6.60;99.90;;;;;;5050900;28;20048;-76
2022/12/28 04:54:30;;;;;;;13.05;7.70;;;6.60;99.90;;;;;;5059911;28;20635;-79
2022/12/28 04:56:56;;;;;;;15.45;8.32;;;6.60;99.90;;;;;;5075888;28;20036;-77
2022/12/28 04:59:21;;;;;;;12.68;8.45;;;6.70;99.90;;;;;;5059381;28;20058;-76
2022/12/28 05:01:47;;;;;;;12.63;8.55;;;6.70;99.90;;;;;;5059458;28;20511;-78
2022/12/28 05:04:13;;;;;;;12.30;8.77;;;6.70;99.90;;;;;;5030953;28;20040;-77
2022/12/28 05:06:39;;;;;;;13.88;9.95;;;6.70;99.90;;;;;;5061526;28;20130;-77
2022/12/28 05:09:04;;;;;;;16.58;10.07;;;6.70;99.90;;;;;;5059624;28;20032;-77
2022/12/28 05:11:30;;;;;;;13.35;9.65;;;6.80;99.90;;;;;;5033149;28;20131;-76
2022/12/28 05:13:56;;;;;;;13.23;9.63;;;6.80;99.90;;;;;;5064258;28;20049;-76
2022/12/28 05:16:25;;;;;;;15.10;9.60;;;6.80;99.90;;;;;;5030947;28;20060;-75
2022/12/28 05:18:51;;;;;;;14.30;9.85;;;6.80;99.90;;;;;;5053924;28;20037;-76
2022/12/28 05:21:22;;;;;;;13.10;9.90;;;6.90;99.90;;;;;;5059204;28;20428;-75
2022/12/28 05:23:49;;;;;;;14.00;9.77;;;6.90;99.90;;;;;;5035891;28;20052;-76
2022/12/28 05:26:17;;;;;;;13.95;10.38;;;6.90;99.90;;;;;;5049942;28;20049;-78
2022/12/28 05:28:43;;;;;;;18.30;11.85;;;7.00;99.90;;;;;;5077640;28;20051;-77
2022/12/28 05:31:19;;;;;;;15.23;10.73;;;7.00;99.90;;;;;;5051089;28;20048;-78
2022/12/28 05:33:46;;;;;;;17.40;11.50;;;7.00;99.90;;;;;;5072285;28;20534;-76
2022/12/28 05:36:17;;;;;;;17.38;11.70;;;7.10;99.90;;;;;;5065366;28;20047;-76
2022/12/28 05:38:43;;;;;;;15.50;11.68;;;7.10;99.90;;;;;;5031765;28;20075;-78
2022/12/28 05:41:20;;;;;;;19.50;12.75;;;7.10;99.90;;;;;;5059489;28;20075;-77
2022/12/28 05:43:46;;;;;;;20.02;12.50;;;7.10;99.90;;;;;;5054728;28;20097;-76
2022/12/28 05:46:14;;;;;;;19.50;13.35;;;7.10;99.90;;;;;;5075741;28;20067;-76
2022/12/28 05:48:41;;;;;;;21.00;12.88;;;7.20;99.90;;;;;;5047783;28;20040;-76
2022/12/28 05:51:10;;;;;;;20.88;13.70;;;7.20;99.90;;;;;;5055301;28;20032;-76
2022/12/28 05:53:37;;;;;;;18.27;12.27;;;7.20;99.90;;;;;;5072258;28;20079;-76
2022/12/28 05:56:11;;;;;;;20.77;12.95;;;7.30;99.90;;;;;;5073434;28;20131;-76
2022/12/28 05:58:37;;;;;;;18.63;13.77;;;7.30;99.90;;;;;;5047835;28;20529;-77
2022/12/28 06:01:15;;;;;;;21.92;13.43;;;7.40;99.90;;;;;;5046526;28;20719;-76
2022/12/28 06:03:42;;;;;;;22.77;13.73;;;7.60;99.90;;;;;;5053380;28;20040;-77
2022/12/28 06:06:13;;;;;;;20.80;13.25;;;7.40;99.90;;;;;;5053262;28;20048;-76
2022/12/28 06:08:39;;;;;;;20.77;13.85;;;7.40;99.90;;;;;;5051971;28;20778;-76
2022/12/28 06:11:11;;;;;;;22.27;12.75;;;7.50;99.90;;;;;;5057115;28;20047;-76
2022/12/28 06:13:37;;;;;;;;;;;7.50;99.90;;;;;;5053950;28;20066;-77
2022/12/28 06:16:06;;;;;;;17.70;12.80;;;7.50;99.90;;;;;;5053625;28;19928;-76
2022/12/28 06:18:32;;;;;;;20.80;12.23;;;7.50;99.90;;;;;;5059531;28;20044;-77
2022/12/28 06:21:10;;;;;;;15.68;11.13;;;7.50;99.90;;;;;;5053388;28;20510;-75
2022/12/28 06:23:35;;;;;;;16.88;11.75;;;7.60;99.90;;;;;;5060294;28;20087;-76
2022/12/28 06:26:02;;;;;;;17.10;11.38;;;7.60;99.90;;;;;;5064172;28;20464;-75
2022/12/28 06:28:29;;;;;;;15.68;11.57;;;7.60;99.90;;;;;;5054969;28;20044;-75
2022/12/28 06:31:06;;;;;;;15.73;10.70;;;7.60;99.90;;;;;;5069326;28;20071;-75
2022/12/28 06:33:33;;;;;;;17.02;10.90;;;7.70;99.90;;;;;;5058604;28;20060;-75
2022/12/28 06:35:59;;;;;;;17.52;10.98;;;7.70;99.90;;;;;;5052685;28;20040;-75
2022/12/28 06:38:26;;;;;;;14.50;10.93;;;7.70;99.90;;;;;;5054522;28;20106;-77
2022/12/28 06:40:52;;;;;;;15.00;10.80;;;7.70;99.90;;;;;;5054580;28;20105;-77
2022/12/28 06:43:18;;;;;;;16.20;11.50;;;7.70;99.90;;;;;;5067444;28;20575;-80
2022/12/28 06:45:55;;;;;;;16.63;11.60;;;7.80;99.90;;;;;;5073936;28;20040;-75
2022/12/28 06:48:21;;;;;;;17.67;11.90;;;7.80;99.90;;;;;;5054510;28;20069;-74
2022/12/28 06:51:18;;;;;;;15.48;10.95;;;8.20;99.90;;;;;;5073126;28;20059;-75
2022/12/28 06:53:46;;;;;;;14.27;11.20;;;7.80;99.90;;;;;;5056389;28;20086;-77
2022/12/28 06:56:15;;;;;;;15.27;11.43;;;7.80;99.90;;;;;;5071485;28;20047;-77
2022/12/28 06:58:41;;;;;;;18.80;11.15;;;7.80;99.90;;;;;;5072781;28;20173;-75
2022/12/28 07:01:09;;;;;;;17.08;10.88;;;8.20;99.90;;;;;;5074259;28;20079;-76
2022/12/28 07:03:35;;;;;;;16.92;10.85;;;8.00;99.90;;;;;;5032118;28;20044;-76
2022/12/28 07:06:02;;;;;;;16.10;10.75;;;8.20;99.90;;;;;;5039551;28;20040;-73
2022/12/28 07:08:28;;;;;;;16.17;10.13;;;7.90;99.90;;;;;;5039796;28;20051;-76
2022/12/28 07:10:54;;;;;;;15.35;10.70;;;7.90;99.90;;;;;;5050735;28;20079;-75
2022/12/28 07:13:20;;;;;;;18.50;11.32;;;7.90;99.90;;;;;;5044662;28;20044;-75
2022/12/28 07:15:46;;;;;;;15.52;10.88;;;7.90;99.90;;;;;;5032433;28;20074;-76
2022/12/28 07:18:12;;;;;;;23.13;11.50;;;8.40;99.90;;;;;;5050918;28;20109;-76
2022/12/28 07:20:37;;;;;;;15.15;11.18;;;7.90;99.90;;;;;;5050305;28;20084;-77
2022/12/28 07:23:03;;;;;;;15.60;11.40;;;7.90;99.90;;;;;;5049157;28;20117;-76
2022/12/28 07:25:29;;;;;;;19.63;12.25;;;8.00;99.90;;;;;;5037937;28;20048;-77
2022/12/28 07:27:55;;;;;;;17.20;11.43;;;8.00;99.90;;;;;;5052865;28;20056;-76
2022/12/28 07:30:20;;;;;;;16.60;11.23;;;8.30;99.90;;;;;;5071748;28;20036;-77
2022/12/28 07:32:46;;;;;;;20.40;12.43;;;8.20;99.90;;;;;;5045304;28;20048;-78
2022/12/28 07:35:12;;;;;;;19.27;12.02;;;8.00;99.90;;;;;;5067874;28;20120;-76
2022/12/28 07:37:38;;;;;;;21.23;12.45;;;8.10;99.90;;;;;;5034929;28;20849;-80
2022/12/28 07:40:04;;;;;;;19.83;12.13;;;8.10;99.90;;;;;;5059067;28;20036;-78
2022/12/28 07:42:30;;;;;;;21.55;11.90;;;8.10;99.90;;;;;;5055936;28;20089;-75
2022/12/28 07:44:55;;;;;;;18.42;11.88;;;8.10;99.90;;;;;;5076525;28;20360;-77
2022/12/28 07:47:21;;;;;;;19.83;11.65;;;8.20;99.90;;;;;;5046474;28;20115;-76
2022/12/28 07:49:47;;;;;;;20.05;11.88;;;8.20;99.90;;;;;;5061825;28;20477;-76
2022/12/28 07:52:13;;;;;;;18.73;11.73;;;8.20;99.90;;;;;;5061405;28;20040;-77
2022/12/28 07:54:38;;;;;;;20.38;11.48;;;8.20;99.90;;;;;;5057527;28;20059;-76
2022/12/28 07:57:04;;;;;;;20.77;11.75;;;8.20;99.90;;;;;;5081164;28;20612;-76
2022/12/28 07:59:30;;;;;;;17.70;11.15;;;8.20;99.90;;;;;;5057741;28;20044;-76
2022/12/28 08:01:55;;;;;;;21.33;11.35;;;8.20;99.90;;;;;;5052284;28;20074;-77
2022/12/28 08:04:21;;;;;;;18.02;11.55;;;8.30;99.90;;;;;;5061647;28;20133;-75
2022/12/28 08:06:47;;;;;;;18.90;11.35;;;8.30;99.90;;;;;;5062542;28;20405;-75
2022/12/28 08:09:13;;;;;;;20.50;12.45;;;8.20;99.90;;;;;;5047731;28;20048;-76
2022/12/28 08:11:44;;;;;;;18.65;11.82;;;8.30;99.90;;;;;;5046516;28;20147;-76
2022/12/28 08:14:11;;;;;;;19.87;12.10;;;8.30;99.90;;;;;;5062102;28;20499;-75
2022/12/28 08:16:39;;;;;;;18.77;12.48;;;8.70;99.90;;;;;;5063710;28;20052;-77
2022/12/28 08:19:05;;;;;;;17.80;12.73;;;8.30;99.90;;;;;;5047198;28;20055;-78
2022/12/28 08:21:35;;;;;;;22.38;13.35;;;8.30;99.90;;;;;;5044644;28;20055;-75
2022/12/28 08:24:01;;;;;;;18.98;12.80;;;8.30;99.90;;;;;;5062009;28;20511;-76
2022/12/28 08:26:30;;;;;;;17.17;12.32;;;8.30;99.90;;;;;;5046559;28;20674;-77
2022/12/28 08:28:58;;;;;;;20.90;13.60;;;8.30;99.90;;;;;;5051128;28;20165;-76
2022/12/28 08:31:32;;;;;;;19.83;13.32;;;8.30;99.90;;;;;;5043393;28;20147;-76
2022/12/28 08:33:59;;;;;;;19.60;12.23;;;8.30;99.90;;;;;;5059725;28;20591;-75
2022/12/28 08:36:25;;;;;;;21.50;12.63;;;8.30;99.90;;;;;;5031898;28;20056;-76
2022/12/28 08:38:51;;;;;;;15.25;10.93;;;8.40;99.90;;;;;;5044098;28;20047;-76
2022/12/28 08:41:22;;;;;;;18.73;11.65;;;8.40;99.90;;;;;;5042286;28;20421;-78
2022/12/28 08:43:49;;;;;;;16.02;10.23;;;8.30;99.90;;;;;;5040432;28;20048;-79
2022/12/28 08:46:20;;;;;;;14.60;9.60;;;8.40;99.90;;;;;;5060795;28;20051;-77
2022/12/28 08:48:48;;;;;;;14.65;9.05;;;8.40;99.90;;;;;;5061763;28;20036;-77
2022/12/28 08:51:19;;;;;;;12.77;8.55;;;8.40;99.90;;;;;;5057156;28;20694;-76
2022/12/28 08:53:45;;;;;;;12.50;8.48;;;8.40;99.90;;;;;;5035879;28;20774;-75
2022/12/28 08:56:21;;;;;;;11.23;7.35;;;8.50;99.90;;;;;;5061195;28;20067;-76
2022/12/28 08:58:50;;;;;;;10.48;6.72;;;8.40;99.90;;;;;;5046319;28;20051;-76
2022/12/28 09:01:28;;;;;;;9.20;6.60;;;8.40;99.90;;;;;;5043018;28;20063;-75
2022/12/28 09:03:56;;;;;;;8.07;5.38;;;8.50;99.90;;;;;;5044659;28;20143;-76
2022/12/28 09:06:34;;;;;;;12.57;5.13;;;8.50;99.90;;;;;;5043565;28;20047;-79
2022/12/28 09:09:01;;;;;;;7.72;4.88;;;8.40;99.90;;;;;;5059974;28;20628;-76
2022/12/28 09:11:27;;;;;;;8.55;4.53;;;8.50;99.90;;;;;;5041103;28;20520;-75
2022/12/28 09:13:53;;;;;;;6.22;3.78;;;8.50;99.90;;;;;;5058217;28;20044;-76
2022/12/28 09:16:24;;;;;;;6.60;4.20;;;8.50;99.90;;;;;;5057905;28;20145;-77
2022/12/28 09:18:54;;;;;;;6.72;3.90;;;8.50;99.90;;;;;;5056562;28;20044;-76
2022/12/28 09:21:21;;;;;;;6.65;4.18;;;8.50;99.90;;;;;;5039848;28;20044;-75
2022/12/28 09:23:47;;;;;;;8.18;4.53;;;8.50;99.90;;;;;;5046829;28;20072;-76
2022/12/28 09:26:18;;;;;;;8.27;5.00;;;8.50;99.90;;;;;;5045325;28;20091;-75
2022/12/28 09:28:45;;;;;;;9.20;5.78;;;8.50;99.90;;;;;;5062570;28;20051;-77
2022/12/28 09:31:11;;;;;;;9.43;5.93;;;8.50;99.90;;;;;;5043811;28;20632;-77
2022/12/28 09:36:21;;;;;;;9.80;6.55;;;8.50;99.90;;;;;;5041934;28;20063;-77
2022/12/28 09:38:48;;;;;;;9.90;7.05;;;8.50;99.90;;;;;;5068951;28;20028;-75
2022/12/28 09:41:43;;;;;;;9.90;6.35;;;8.50;99.90;;;;;;5054526;28;20539;-76
2022/12/28 09:44:11;;;;;;;9.30;6.13;;;8.60;99.90;;;;;;5053268;28;20589;-75
2022/12/28 09:46:42;;;;;;;8.32;5.45;;;8.60;99.90;;;;;;5052190;28;20079;-76
2022/12/28 09:49:15;;;;;;;9.00;6.13;;;8.90;99.90;;;;;;5078110;28;20101;-76
2022/12/28 09:51:54;;;;;;;9.38;5.75;;;8.60;99.90;;;;;;5078269;28;20051;-75
2022/12/28 09:54:20;;;;;;;7.88;5.00;;;8.60;99.90;;;;;;5061288;28;20044;-76
2022/12/28 09:56:47;;;;;;;6.82;4.35;;;8.60;99.90;;;;;;5051408;28;20079;-75
2022/12/28 09:59:21;;;;;;;6.90;4.25;;;8.60;99.90;;;;;;5034884;28;20052;-75
2022/12/28 10:01:57;;;;;;;7.30;4.30;;;8.60;99.90;;;;;;5073643;28;20519;-75
2022/12/28 10:04:23;;;;;;;7.60;4.45;;;8.60;99.90;;;;;;5054514;28;20067;-76
2022/12/28 10:06:49;;;;;;;8.15;4.50;;;8.60;99.90;;;;;;5062408;28;20572;-77
2022/12/28 10:09:30;;;;;;;6.93;4.05;;;8.60;99.90;;;;;;5063070;28;20052;-74
2022/12/28 10:11:59;;;;;;;6.82;4.18;;;8.60;99.90;;;;;;5048959;28;20409;-76
2022/12/28 10:14:33;;;;;;;6.63;4.35;;;8.60;99.90;;;;;;5050440;28;20512;-75
2022/12/28 10:16:59;;;;;;;7.15;4.30;;;8.60;99.90;;;;;;5066597;28;20043;-76
2022/12/28 10:19:26;;;;;;;7.15;4.32;;;8.60;99.90;;;;;;5046017;28;20052;-76
2022/12/28 10:22:18;;;;;;;8.38;4.47;;;8.60;99.90;;;;;;5062119;28;20040;-76
2022/12/28 10:24:45;;;;;;;13.35;4.53;;;8.60;99.90;;;;;;5057384;28;20134;-76
2022/12/28 10:27:23;;;;;;;8.77;5.00;;;8.60;99.90;;;;;;5056288;28;20448;-74
2022/12/28 10:29:53;;;;;;;8.63;5.47;;;8.60;99.90;;;;;;5055047;28;20040;-74
2022/12/28 10:32:20;;;;;;;10.23;6.88;;;8.60;99.90;;;;;;5071114;28;20062;-74
2022/12/28 10:34:58;;;;;;;12.20;7.38;;;8.60;99.90;;;;;;5075739;28;20343;-76
2022/12/28 10:37:27;;;;;;;11.60;8.25;;;8.60;99.90;;;;;;5052916;28;20400;-76
2022/12/28 10:40:04;;;;;;;14.23;8.43;;;8.60;99.90;;;;;;5046605;28;20125;-74
2022/12/28 10:42:38;;;;;;;11.60;8.18;;;8.70;99.90;;;;;;5043077;28;20048;-75
2022/12/28 10:45:15;;;;;;;11.40;8.45;;;8.70;99.90;;;;;;5075319;28;20429;-75
2022/12/28 10:47:44;;;;;;;11.35;7.40;;;8.70;99.90;;;;;;5063073;28;20127;-75
2022/12/28 10:50:44;;;;;;;11.55;8.02;;;8.70;99.90;;;;;;5054435;28;20112;-75
2022/12/28 10:53:22;;;;;;;11.82;7.95;;;8.70;99.90;;;;;;5068477;28;20040;-75
2022/12/28 10:55:47;;;;;;;11.85;7.57;;;8.70;99.90;;;;;;5047181;28;20040;-77
2022/12/28 10:58:20;;;;;;;10.93;7.55;;;8.70;99.90;;;;;;5067940;28;20865;-76
2022/12/28 11:00:58;;;;;;;13.57;7.78;;;8.80;99.90;;;;;;5065664;28;20039;-75
2022/12/28 11:03:27;;;;;;;10.82;6.70;;;8.80;99.90;;;;;;5053332;28;20123;-78
2022/12/28 11:06:19;;;;;;;9.25;6.25;;;8.80;99.90;;;;;;5048355;28;20108;-76
2022/12/28 11:09:01;;;;;;;10.13;6.60;;;8.80;99.90;;;;;;5066069;28;20052;-76
2022/12/28 11:11:26;;;;;;;;;;;8.80;99.90;;;;;;5052122;28;20056;-74
2022/12/28 11:14:11;;;;;;;11.80;5.88;;;8.80;99.90;;;;;;5065061;28;19924;-76
2022/12/28 11:16:38;;;;;;;10.02;6.03;;;8.90;99.90;;;;;;5046557;28;20064;-76
2022/12/28 11:19:04;;;;;;;9.93;5.38;;;8.90;99.90;;;;;;5049769;28;20150;-78
2022/12/28 11:21:32;;;;;;;8.68;5.50;;;8.80;99.90;;;;;;5050202;28;20048;-76
2022/12/28 11:23:58;;;;;;;7.75;5.20;;;8.90;99.90;;;;;;5047840;28;20456;-76
2022/12/28 11:26:27;;;;;;;7.97;4.93;;;8.90;99.90;;;;;;5047437;28;20131;-76
2022/12/28 11:28:53;;;;;;;8.68;5.32;;;8.80;99.90;;;;;;5031216;28;20040;-75
2022/12/28 11:31:26;;;;;;;7.43;4.63;;;8.90;99.90;;;;;;5047143;28;20695;-74
2022/12/28 11:33:56;;;;;;;7.20;4.55;;;8.90;99.90;;;;;;5051688;28;20052;-74
2022/12/28 11:36:24;;;;;;;9.35;4.50;;;8.90;99.90;;;;;;5045121;28;20098;-77
2022/12/28 11:38:52;;;;;;;7.13;4.03;;;8.90;99.90;;;;;;5063631;28;20932;-75
2022/12/28 11:41:23;;;;;;;8.23;4.38;;;8.90;99.90;;;;;;5065049;28;20654;-76
2022/12/28 11:44:00;;;;;;;7.25;4.03;;;8.90;99.90;;;;;;5047786;28;20043;-76
2022/12/28 11:46:26;;;;;;;6.82;3.95;;;8.90;99.90;;;;;;5047823;28;21875;-74
2022/12/28 11:49:02;;;;;;;8.13;3.80;;;8.90;99.90;;;;;;5046719;28;20044;-76
2022/12/28 11:51:32;;;;;;;6.72;3.70;;;8.90;99.90;;;;;;5065939;28;20048;-75
2022/12/28 11:53:59;;;;;;;6.60;3.85;;;8.90;99.90;;;;;;5049917;28;20350;-74
2022/12/28 11:56:46;;;;;;;7.85;3.45;;;8.90;99.90;;;;;;5033491;28;20068;-75
2022/12/28 11:59:31;;;;;;;7.43;3.88;;;8.90;99.90;;;;;;5027391;28;20947;-75
2022/12/28 12:02:02;;;;;;;7.07;4.28;;;8.90;99.90;;;;;;5048295;28;20047;-75
2022/12/28 12:04:30;;;;;;;6.53;3.60;;;8.90;99.90;;;;;;5063930;28;20044;-75
2022/12/28 12:07:02;;;;;;;7.15;4.05;;;8.90;99.90;;;;;;5050183;28;20055;-75
2022/12/28 12:09:38;;;;;;;;;;;8.90;99.90;;;;;;5066041;28;20174;-73
2022/12/28 12:12:13;;;;;;;7.88;4.45;;;8.90;99.90;;;;;;5065889;28;20556;-74
2022/12/28 12:14:56;;;;;;;6.88;4.55;;;8.90;99.90;;;;;;5049014;28;20055;-74
2022/12/28 12:17:32;;;;;;;7.53;4.85;;;8.90;99.90;;;;;;5047006;28;20666;-76
2022/12/28 12:20:03;;;;;;;7.72;4.65;;;8.90;99.90;;;;;;5047627;28;20527;-72
2022/12/28 12:22:34;;;;;;;7.43;4.55;;;8.90;99.90;;;;;;5046485;28;20036;-75
2022/12/28 12:25:18;;;;;;;7.53;5.00;;;8.90;99.90;;;;;;5049831;28;20047;-75
2022/12/28 12:27:51;;;;;;;9.05;5.40;;;8.90;99.90;;;;;;5047754;28;20055;-74
2022/12/28 12:30:20;;;;;;;7.90;5.03;;;8.90;99.90;;;;;;5049011;28;20130;-76
2022/12/28 12:32:54;;;;;;;7.07;4.65;;;8.90;99.90;;;;;;5047425;28;20044;-76
2022/12/28 12:35:23;;;;;;;7.93;4.75;;;8.90;99.90;;;;;;5070330;28;20171;-75
2022/12/28 12:38:20;;;;;;;6.57;4.45;;;8.90;99.90;;;;;;5044560;28;20048;-77
2022/12/28 12:41:14;;;;;;;6.97;4.65;;;8.90;99.90;;;;;;5042172;28;20400;-73
2022/12/28 12:43:58;;;;;;;7.28;5.07;;;8.90;99.90;;;;;;5045007;28;20082;-75
2022/12/28 12:46:51;;;;;;;11.02;4.60;;;8.90;99.90;;;;;;5045855;28;20058;-76
2022/12/28 12:49:26;;;;;;;7.70;4.70;;;8.90;99.90;;;;;;5046571;28;20048;-74
2022/12/28 12:52:02;;;;;;;6.90;4.35;;;8.90;99.90;;;;;;5063759;28;20048;-75
2022/12/28 12:55:10;;;;;;;7.78;4.60;;;8.90;99.90;;;;;;5046383;28;20052;-75
2022/12/28 12:57:57;;;;;;;7.90;4.57;;;8.90;99.90;;;;;;5047477;28;20245;-75
2022/12/28 13:00:27;;;;;;;7.53;4.20;;;8.90;99.90;;;;;;5048250;28;20591;-74
2022/12/28 13:03:25;;;;;;;6.30;4.03;;;8.90;99.90;;;;;;5066897;28;20463;-74
2022/12/28 13:06:04;;;;;;;7.05;3.30;;;9.00;99.90;;;;;;5061333;28;20130;-77
2022/12/28 13:08:54;;;;;;;6.05;3.53;;;8.90;99.90;;;;;;5052554;28;20079;-76
2022/12/28 13:11:21;;;;;;;5.85;3.35;;;8.90;99.90;;;;;;5047048;28;20060;-76
2022/12/28 13:13:52;;;;;;;6.10;3.58;;;8.90;99.90;;;;;;5057101;28;20119;-75
2022/12/28 13:16:24;;;;;;;7.50;3.30;;;8.90;99.90;;;;;;5037000;28;20044;-75
2022/12/28 13:18:55;;;;;;;5.95;3.55;;;8.90;99.90;;;;;;5036954;28;20040;-73
2022/12/28 13:21:22;;;;;;;5.72;2.85;;;8.90;99.90;;;;;;5015025;28;20040;-74
2022/12/28 13:23:49;;;;;;;6.13;3.22;;;8.80;99.90;;;;;;5049926;28;20045;-74
2022/12/28 13:26:16;;;;;;;6.57;3.67;;;8.80;99.90;;;;;;5036300;28;20075;-74
2022/12/28 13:28:51;;;;;;;5.78;3.70;;;8.80;99.90;;;;;;5035157;28;20519;-74
2022/12/28 13:31:24;;;;;;;5.55;3.28;;;8.80;99.90;;;;;;5049169;28;20543;-75
2022/12/28 13:33:58;;;;;;;7.57;3.63;;;8.80;99.90;;;;;;5037836;28;22031;-74
2022/12/28 13:36:24;;;;;;;5.22;3.30;;;8.80;99.90;;;;;;5041825;28;20051;-72
2022/12/28 13:39:11;;;;;;;7.15;3.38;;;8.80;99.90;;;;;;5031567;28;20162;-75